createdAt,value
2023-05-10T00:02:07.035Z,17.38
2023-05-10T00:04:36.866Z,17.38
2023-05-10T00:07:04.675Z,17.35
2023-05-10T00:09:32.997Z,17.35
2023-05-10T00:12:01.373Z,17.34
2023-05-10T00:14:29.246Z,17.32
2023-05-10T00:16:57.128Z,17.29
2023-05-10T00:19:25.947Z,17.29
2023-05-10T00:21:55.345Z,17.27
2023-05-10T00:24:23.144Z,17.27
2023-05-10T00:26:51.680Z,17.26
2023-05-10T00:29:19.492Z,17.26
2023-05-10T00:31:47.326Z,17.26
2023-05-10T00:34:15.623Z,17.26
2023-05-10T00:36:43.553Z,17.24
2023-05-10T00:39:13.686Z,17.26
2023-05-10T00:41:41.962Z,17.24
2023-05-10T00:44:10.036Z,17.23
2023-05-10T00:46:37.883Z,17.23
2023-05-10T00:49:06.629Z,17.20
2023-05-10T00:51:34.670Z,17.22
2023-05-10T00:54:02.662Z,17.22
2023-05-10T00:56:33.362Z,17.23
2023-05-10T00:59:02.131Z,17.21
2023-05-10T01:01:30.805Z,17.20
2023-05-10T01:03:59.690Z,17.21
2023-05-10T01:06:27.489Z,17.22
2023-05-10T01:08:55.566Z,17.22
2023-05-10T01:14:14.570Z,17.24
2023-05-10T01:16:44.963Z,17.23
2023-05-10T01:19:19.365Z,17.20
2023-05-10T01:21:55.507Z,17.27
2023-05-10T01:24:48.822Z,17.28
2023-05-10T01:27:26.533Z,17.27
2023-05-10T01:30:37.610Z,17.25
2023-05-10T01:33:13.527Z,17.27
2023-05-10T01:35:45.134Z,17.26
2023-05-10T01:38:20.086Z,17.27
2023-05-10T01:40:58.597Z,17.26
2023-05-10T01:43:33.639Z,17.26
2023-05-10T01:46:11.221Z,17.26
2023-05-10T01:48:48.827Z,17.29
2023-05-10T01:51:21.796Z,17.28
2023-05-10T01:53:52.299Z,17.29
2023-05-10T01:56:26.092Z,17.29
2023-05-10T01:58:55.493Z,17.28
2023-05-10T02:01:24.293Z,17.26
2023-05-10T02:03:54.139Z,17.25
2023-05-10T02:06:24.684Z,17.25
2023-05-10T02:08:54.241Z,17.22
2023-05-10T02:11:23.029Z,17.23
2023-05-10T02:13:53.014Z,17.24
2023-05-10T02:16:25.755Z,17.25
2023-05-10T02:18:56.398Z,17.23
2023-05-10T02:21:26.113Z,17.24
2023-05-10T02:23:56.896Z,17.20
2023-05-10T02:26:27.030Z,17.23
2023-05-10T02:28:56.393Z,17.24
2023-05-10T02:31:25.801Z,17.24
2023-05-10T02:33:56.495Z,17.26
2023-05-10T02:36:25.254Z,17.26
2023-05-10T02:38:55.475Z,17.25
2023-05-10T02:41:25.068Z,17.26
2023-05-10T02:43:52.935Z,17.30
2023-05-10T02:46:21.695Z,17.24
2023-05-10T02:48:49.553Z,17.24
2023-05-10T02:51:21.407Z,17.24
2023-05-10T02:53:51.945Z,17.19
2023-05-10T02:56:27.093Z,17.17
2023-05-10T02:58:55.432Z,17.14
2023-05-10T03:01:23.469Z,17.09
2023-05-10T03:03:51.337Z,17.08
2023-05-10T03:06:20.939Z,17.06
2023-05-10T03:08:48.655Z,17.09
2023-05-10T03:11:40.465Z,17.07
2023-05-10T03:14:22.682Z,17.06
2023-05-10T03:16:59.367Z,17.05
2023-05-10T03:19:32.336Z,17.02
2023-05-10T03:22:06.332Z,16.99
2023-05-10T03:24:37.619Z,16.99
2023-05-10T03:27:06.866Z,16.93
2023-05-10T03:29:35.857Z,16.92
2023-05-10T03:32:03.879Z,16.93
2023-05-10T03:34:33.525Z,16.92
2023-05-10T03:37:02.456Z,16.88
2023-05-10T03:39:30.254Z,16.94
2023-05-10T03:41:58.572Z,16.89
2023-05-10T03:44:26.372Z,16.87
2023-05-10T03:46:54.334Z,16.84
2023-05-10T03:49:22.680Z,16.84
2023-05-10T03:51:50.811Z,16.81
2023-05-10T03:54:19.926Z,16.78
2023-05-10T03:56:49.516Z,16.79
2023-05-10T03:59:17.070Z,16.85
2023-05-10T04:01:44.845Z,16.87
2023-05-10T04:04:13.359Z,16.88
2023-05-10T04:06:41.296Z,16.89
2023-05-10T04:09:09.347Z,16.89
2023-05-10T04:11:39.008Z,16.88
2023-05-10T04:14:06.598Z,16.91
2023-05-10T04:16:34.431Z,16.91
2023-05-10T04:19:02.729Z,16.90
2023-05-10T04:21:30.574Z,16.89
2023-05-10T04:23:58.342Z,16.87
2023-05-10T04:26:27.211Z,16.85
2023-05-10T04:28:56.381Z,16.87
2023-05-10T04:31:24.149Z,16.87
2023-05-10T04:33:52.550Z,16.85
2023-05-10T04:36:20.402Z,16.87
2023-05-10T04:38:48.199Z,16.86
2023-05-10T04:41:16.624Z,16.86
2023-05-10T04:43:44.389Z,16.86
2023-05-10T04:46:13.591Z,16.88
2023-05-10T04:48:41.953Z,16.89
2023-05-10T04:51:09.769Z,16.90
2023-05-10T04:53:37.556Z,16.91
2023-05-10T04:56:06.455Z,16.89
2023-05-10T04:58:34.385Z,16.88
2023-05-10T05:01:07.919Z,16.94
2023-05-10T05:03:37.118Z,16.94
2023-05-10T05:06:05.670Z,16.91
2023-05-10T05:08:33.992Z,16.91
2023-05-10T05:11:01.747Z,16.90
2023-05-10T05:13:29.606Z,16.89
2023-05-10T05:15:58.137Z,16.84
2023-05-10T05:18:26.170Z,16.85
2023-05-10T05:20:55.254Z,16.85
2023-05-10T05:23:26.168Z,16.83
2023-05-10T05:25:54.527Z,16.80
2023-05-10T05:28:23.412Z,16.79
2023-05-10T05:30:51.807Z,16.80
2023-05-10T05:33:19.580Z,16.79
2023-05-10T05:35:51.592Z,16.73
2023-05-10T05:38:21.237Z,16.74
2023-05-10T05:40:48.778Z,16.79
2023-05-10T05:43:16.515Z,16.78
2023-05-10T05:45:44.710Z,16.78
2023-05-10T05:48:12.474Z,16.79
2023-05-10T05:50:40.235Z,16.76
2023-05-10T05:53:08.534Z,16.77
2023-05-10T05:55:37.666Z,16.77
2023-05-10T05:58:05.525Z,16.76
2023-05-10T06:00:33.845Z,16.79
2023-05-10T06:03:01.767Z,16.79
2023-05-10T06:05:29.666Z,16.78
2023-05-10T06:07:58.160Z,16.77
2023-05-10T06:10:26.451Z,16.77
2023-05-10T06:12:55.833Z,16.76
2023-05-10T06:15:24.225Z,16.73
2023-05-10T06:17:52.202Z,16.71
2023-05-10T06:20:20.165Z,16.70
2023-05-10T06:22:48.452Z,16.65
2023-05-10T06:25:18.960Z,16.57
2023-05-10T06:27:52.865Z,16.54
2023-05-10T06:30:24.077Z,16.53
2023-05-10T06:32:52.553Z,16.51
2023-05-10T06:35:20.403Z,16.50
2023-05-10T06:37:48.529Z,16.45
2023-05-10T06:40:16.547Z,16.48
2023-05-10T06:42:45.936Z,16.49
2023-05-10T06:45:14.306Z,16.49
2023-05-10T06:47:44.463Z,16.47
2023-05-10T06:50:13.301Z,16.46
2023-05-10T06:52:41.274Z,16.45
2023-05-10T06:55:11.051Z,16.46
2023-05-10T06:57:38.918Z,16.47
2023-05-10T07:00:08.155Z,16.45
2023-05-10T07:02:36.367Z,16.43
2023-05-10T07:05:06.131Z,16.45
2023-05-10T07:07:34.034Z,16.45
2023-05-10T07:10:02.261Z,16.44
2023-05-10T07:12:30.060Z,16.47
2023-05-10T07:14:57.881Z,16.46
2023-05-10T07:17:26.708Z,16.47
2023-05-10T07:19:54.668Z,16.46
2023-05-10T07:22:23.821Z,16.46
2023-05-10T07:24:51.899Z,16.47
2023-05-10T07:27:19.916Z,16.49
2023-05-10T07:29:47.724Z,16.51
2023-05-10T07:32:15.703Z,16.49
2023-05-10T07:34:43.646Z,16.50
2023-05-10T07:37:11.486Z,16.46
2023-05-10T07:39:41.027Z,16.47
2023-05-10T07:42:09.285Z,16.49
2023-05-10T07:44:37.097Z,16.46
2023-05-10T07:47:04.963Z,16.43
2023-05-10T07:49:32.741Z,16.43
2023-05-10T07:52:00.523Z,16.43
2023-05-10T07:54:28.877Z,16.40
2023-05-10T07:56:58.170Z,16.40
2023-05-10T07:59:26.106Z,16.43
2023-05-10T08:01:54.406Z,16.44
2023-05-10T08:04:22.446Z,16.43
2023-05-10T08:06:50.340Z,16.41
2023-05-10T08:09:19.150Z,16.44
2023-05-10T08:11:46.928Z,16.43
2023-05-10T08:14:16.060Z,16.47
2023-05-10T08:16:44.085Z,16.49
2023-05-10T08:19:11.946Z,16.43
2023-05-10T08:21:41.425Z,16.53
2023-05-10T08:24:09.760Z,16.50
2023-05-10T08:26:37.531Z,16.57
2023-05-10T08:29:06.561Z,16.58
2023-05-10T08:31:36.234Z,16.61
2023-05-10T08:34:04.098Z,16.61
2023-05-10T08:36:33.126Z,16.61
2023-05-10T08:39:01.486Z,16.63
2023-05-10T08:41:29.863Z,16.64
2023-05-10T08:43:57.743Z,16.66
2023-05-10T08:46:26.091Z,16.66
2023-05-10T08:48:56.853Z,16.68
2023-05-10T08:51:27.904Z,16.69
2023-05-10T08:53:56.313Z,16.70
2023-05-10T08:56:25.038Z,16.71
2023-05-10T08:58:53.236Z,16.72
2023-05-10T09:01:22.356Z,16.73
2023-05-10T09:03:51.264Z,16.72
2023-05-10T09:06:21.293Z,16.67
2023-05-10T09:08:49.603Z,16.74
2023-05-10T09:11:18.185Z,16.75
2023-05-10T09:13:47.229Z,16.76
2023-05-10T09:18:48.512Z,16.75
2023-05-10T09:21:16.494Z,16.75
2023-05-10T09:23:48.703Z,16.79
2023-05-10T09:26:17.073Z,16.77
2023-05-10T09:28:55.489Z,16.75
2023-05-10T09:31:23.572Z,16.74
2023-05-10T09:33:52.602Z,16.74
2023-05-10T09:36:20.767Z,16.72
2023-05-10T09:38:51.829Z,16.72
2023-05-10T09:41:21.483Z,16.73
2023-05-10T09:43:49.113Z,16.77
2023-05-10T09:46:17.827Z,16.75
2023-05-10T09:48:47.510Z,16.77
2023-05-10T09:51:20.770Z,16.79
2023-05-10T09:53:51.897Z,16.77
2023-05-10T09:56:35.024Z,16.75
2023-05-10T09:59:06.634Z,16.78
2023-05-10T10:01:35.241Z,16.73
2023-05-10T10:04:06.011Z,16.73
2023-05-10T10:06:38.874Z,16.70
2023-05-10T10:09:09.180Z,16.70
2023-05-10T10:11:38.420Z,16.67
2023-05-10T10:14:06.704Z,16.67
2023-05-10T10:16:34.980Z,16.63
2023-05-10T10:19:03.270Z,16.69
2023-05-10T10:21:32.275Z,16.71
2023-05-10T10:24:00.047Z,16.72
2023-05-10T10:26:29.640Z,16.75
2023-05-10T10:29:02.637Z,16.77
2023-05-10T10:31:36.791Z,16.79
2023-05-10T10:34:09.490Z,16.80
2023-05-10T10:36:42.763Z,16.81
2023-05-10T10:39:13.217Z,16.78
2023-05-10T10:41:50.991Z,16.84
2023-05-10T10:44:27.377Z,16.86
2023-05-10T10:47:06.973Z,16.86
2023-05-10T10:49:35.363Z,16.93
2023-05-10T10:52:17.143Z,16.96
2023-05-10T10:54:52.550Z,16.96
2023-05-10T10:57:26.204Z,16.98
2023-05-10T10:59:54.631Z,17.00
2023-05-10T11:02:36.360Z,17.06
2023-05-10T11:05:46.179Z,17.12
2023-05-10T11:08:22.861Z,17.18
2023-05-10T11:11:08.216Z,17.22
2023-05-10T11:13:42.174Z,17.28
2023-05-10T11:16:16.302Z,17.31
2023-05-10T11:18:55.169Z,17.34
2023-05-10T11:21:23.344Z,17.38
2023-05-10T11:23:52.592Z,17.38
2023-05-10T11:26:24.505Z,17.43
2023-05-10T11:28:56.287Z,17.39
2023-05-10T11:31:28.216Z,17.49
2023-05-10T11:33:57.404Z,17.50
2023-05-10T11:36:29.550Z,17.54
2023-05-10T11:38:58.358Z,17.55
2023-05-10T11:41:27.024Z,17.57
2023-05-10T11:43:57.865Z,17.61
2023-05-10T11:46:27.643Z,17.54
2023-05-10T11:48:58.952Z,17.65
2023-05-10T11:51:27.825Z,17.67
2023-05-10T11:53:57.205Z,17.73
2023-05-10T11:56:27.654Z,17.76
2023-05-10T11:58:58.367Z,17.82
2023-05-10T12:01:27.416Z,17.83
2023-05-10T12:04:00.286Z,17.88
2023-05-10T12:06:30.411Z,17.94
2023-05-10T12:08:58.380Z,17.97
2023-05-10T12:11:28.785Z,18.00
2023-05-10T12:13:58.486Z,18.05
2023-05-10T12:16:27.770Z,17.99
2023-05-10T12:18:59.385Z,18.11
2023-05-10T12:21:27.934Z,18.19
2023-05-10T12:23:57.380Z,18.22
2023-05-10T12:26:28.271Z,18.26
2023-05-10T12:29:13.363Z,18.32
2023-05-10T12:31:52.865Z,18.39
2023-05-10T12:34:29.268Z,18.45
2023-05-10T12:36:57.611Z,18.47
2023-05-10T12:39:25.949Z,18.52
2023-05-10T12:41:54.379Z,18.53
2023-05-10T12:44:24.238Z,18.61
2023-05-10T12:46:52.192Z,18.66
2023-05-10T12:49:20.616Z,18.72
2023-05-10T12:51:49.070Z,18.75
2023-05-10T12:54:17.012Z,18.78
2023-05-10T12:56:45.432Z,18.79
2023-05-10T12:59:13.770Z,18.80
2023-05-10T13:01:43.312Z,18.81
2023-05-10T13:04:11.046Z,18.85
2023-05-10T13:06:39.574Z,18.88
2023-05-10T13:09:08.093Z,18.88
2023-05-10T13:11:36.169Z,18.92
2023-05-10T13:14:04.887Z,18.95
2023-05-10T13:16:33.120Z,18.97
2023-05-10T13:19:02.465Z,18.99
2023-05-10T13:21:31.029Z,19.03
2023-05-10T13:23:59.165Z,19.04
2023-05-10T13:26:27.265Z,19.07
2023-05-10T13:28:57.084Z,19.11
2023-05-10T13:31:25.038Z,19.17
2023-05-10T13:33:53.314Z,19.20
2023-05-10T13:36:24.356Z,19.24
2023-05-10T13:38:52.186Z,19.27
2023-05-10T13:41:20.389Z,19.32
2023-05-10T13:43:50.162Z,19.33
2023-05-10T13:46:18.131Z,19.35
2023-05-10T13:48:46.023Z,19.37
2023-05-10T13:51:14.906Z,19.40
2023-05-10T13:53:44.347Z,19.42
2023-05-10T13:56:12.320Z,19.40
2023-05-10T13:58:40.308Z,19.41
2023-05-10T14:01:08.702Z,19.40
2023-05-10T14:03:36.556Z,19.38
2023-05-10T14:06:04.624Z,19.36
2023-05-10T14:08:32.413Z,19.36
2023-05-10T14:11:01.549Z,19.37
2023-05-10T14:13:29.847Z,19.35
2023-05-10T14:15:57.672Z,19.34
2023-05-10T14:18:25.532Z,19.34
2023-05-10T14:20:53.387Z,19.35
2023-05-10T14:23:24.949Z,19.35
2023-05-10T14:25:52.886Z,19.37
2023-05-10T14:28:23.821Z,19.37
2023-05-10T14:30:51.847Z,19.34
2023-05-10T14:33:20.164Z,19.34
2023-05-10T14:35:48.334Z,19.33
2023-05-10T14:38:16.224Z,19.31
2023-05-10T14:40:44.340Z,19.29
2023-05-10T14:43:12.321Z,19.28
2023-05-10T14:45:41.588Z,19.25
2023-05-10T14:48:13.517Z,19.25
2023-05-10T14:50:41.783Z,19.20
2023-05-10T14:53:09.719Z,19.20
2023-05-10T14:55:38.105Z,19.21
2023-05-10T14:58:06.111Z,19.19
2023-05-10T15:00:34.199Z,19.21
2023-05-10T15:03:04.792Z,19.19
2023-05-10T15:05:33.097Z,19.17
2023-05-10T15:08:01.304Z,19.17
2023-05-10T15:10:29.441Z,19.13
2023-05-10T15:12:57.254Z,19.09
2023-05-10T15:15:25.699Z,19.09
2023-05-10T15:17:54.027Z,19.05
2023-05-10T15:20:23.514Z,19.00
2023-05-10T15:22:51.781Z,18.92
2023-05-10T15:25:20.299Z,18.94
2023-05-10T15:27:48.245Z,18.88
2023-05-10T15:30:16.613Z,18.88
2023-05-10T15:32:44.923Z,18.81
2023-05-10T15:35:12.800Z,18.81
2023-05-10T15:37:42.170Z,18.81
2023-05-10T15:40:11.209Z,18.82
2023-05-10T15:42:39.059Z,18.79
2023-05-10T15:45:08.133Z,18.80
2023-05-10T15:47:36.363Z,18.76
2023-05-10T15:50:04.639Z,18.77
2023-05-10T15:52:32.610Z,18.75
2023-05-10T15:55:02.205Z,18.78
2023-05-10T15:57:29.963Z,18.77
2023-05-10T15:59:58.209Z,18.77
2023-05-10T16:02:26.517Z,18.76
2023-05-10T16:04:54.425Z,18.76
2023-05-10T16:07:22.358Z,18.77
2023-05-10T16:09:50.853Z,18.76
2023-05-10T16:12:20.143Z,18.79
2023-05-10T16:14:48.193Z,18.82
2023-05-10T16:17:16.517Z,18.83
2023-05-10T16:19:44.603Z,18.86
2023-05-10T16:22:12.661Z,18.89
2023-05-10T16:24:40.812Z,18.92
2023-05-10T16:27:08.574Z,18.92
2023-05-10T16:29:38.018Z,18.95
2023-05-10T16:32:06.462Z,18.96
2023-05-10T16:34:34.291Z,18.96
2023-05-10T16:37:02.150Z,18.99
2023-05-10T16:39:30.134Z,19.01
2023-05-10T16:41:58.206Z,19.01
2023-05-10T16:44:26.253Z,19.04
2023-05-10T16:46:56.402Z,19.02
2023-05-10T16:49:26.135Z,19.04
2023-05-10T16:51:54.246Z,19.06
2023-05-10T16:54:22.786Z,19.04
2023-05-10T16:56:50.551Z,19.07
2023-05-10T16:59:18.587Z,19.08
2023-05-10T17:01:47.249Z,19.09
2023-05-10T17:04:17.772Z,19.09
2023-05-10T17:06:45.684Z,19.08
2023-05-10T17:09:14.192Z,19.09
2023-05-10T17:11:42.464Z,19.11
2023-05-10T17:14:10.270Z,19.12
2023-05-10T17:16:38.832Z,19.14
2023-05-10T17:19:06.954Z,19.13
2023-05-10T17:21:36.180Z,19.12
2023-05-10T17:24:04.487Z,19.14
2023-05-10T17:26:32.358Z,19.14
2023-05-10T17:29:00.151Z,19.17
2023-05-10T17:31:28.915Z,19.13
2023-05-10T17:33:56.736Z,19.14
2023-05-10T17:36:24.545Z,19.14
2023-05-10T17:38:54.538Z,19.17
2023-05-10T17:41:23.249Z,19.15
2023-05-10T17:43:51.112Z,19.18
2023-05-10T17:46:19.246Z,19.18
2023-05-10T17:48:47.264Z,19.18
2023-05-10T17:51:15.325Z,19.16
2023-05-10T17:53:43.555Z,19.18
2023-05-10T17:56:12.729Z,19.18
2023-05-10T17:58:40.538Z,19.15
2023-05-10T18:01:09.005Z,19.17
2023-05-10T18:03:36.815Z,19.18
2023-05-10T18:06:05.115Z,19.14
2023-05-10T18:08:33.659Z,19.13
2023-05-10T18:11:01.432Z,19.12
2023-05-10T18:13:30.583Z,19.10
2023-05-10T18:15:59.018Z,19.08
2023-05-10T18:18:26.987Z,19.04
2023-05-10T18:20:57.536Z,19.04
2023-05-10T18:23:26.924Z,19.01
2023-05-10T18:25:54.706Z,18.99
2023-05-10T18:28:22.471Z,18.99
2023-05-10T18:30:52.720Z,18.89
2023-05-10T18:33:20.504Z,18.94
2023-05-10T18:35:48.376Z,18.92
2023-05-10T18:38:16.781Z,18.86
2023-05-10T18:40:44.577Z,18.89
2023-05-10T18:43:12.458Z,18.87
2023-05-10T18:45:40.537Z,18.88
2023-05-10T18:48:09.692Z,18.88
2023-05-10T18:50:37.954Z,18.88
2023-05-10T18:53:06.448Z,18.89
2023-05-10T18:55:34.365Z,18.88
2023-05-10T18:58:02.125Z,18.88
2023-05-10T19:00:30.356Z,18.89
2023-05-10T19:02:58.210Z,18.88
2023-05-10T19:05:30.665Z,18.89
2023-05-10T19:07:58.545Z,18.88
2023-05-10T19:10:26.314Z,18.88
2023-05-10T19:12:54.706Z,18.86
2023-05-10T19:15:22.629Z,18.86
2023-05-10T19:17:51.645Z,18.82
2023-05-10T19:20:20.701Z,18.81
2023-05-10T19:23:08.150Z,18.82
2023-05-10T19:25:39.651Z,18.79
2023-05-10T19:28:07.945Z,18.77
2023-05-10T19:30:36.230Z,18.74
2023-05-10T19:33:04.692Z,18.72
2023-05-10T19:35:32.507Z,18.69
2023-05-10T19:38:01.751Z,18.68
2023-05-10T19:40:30.087Z,18.66
2023-05-10T19:42:58.219Z,18.62
2023-05-10T19:45:26.766Z,18.62
2023-05-10T19:47:54.996Z,18.59
2023-05-10T19:50:22.822Z,18.57
2023-05-10T19:52:50.815Z,18.55
2023-05-10T19:55:29.670Z,18.55
2023-05-10T19:57:57.624Z,18.50
2023-05-10T20:00:27.221Z,18.49
2023-05-10T20:02:55.315Z,18.53
2023-05-10T20:05:23.250Z,18.50
2023-05-10T20:07:51.542Z,18.47
2023-05-10T20:10:19.872Z,18.43
2023-05-10T20:12:51.345Z,18.38
2023-05-10T20:15:20.703Z,18.39
2023-05-10T20:17:50.957Z,18.37
2023-05-10T20:20:19.990Z,18.36
2023-05-10T20:22:48.571Z,18.35
2023-05-10T20:25:18.928Z,18.36
2023-05-10T20:27:46.792Z,18.33
2023-05-10T20:30:18.080Z,18.33
2023-05-10T20:32:46.102Z,18.32
2023-05-10T20:35:13.884Z,18.31
2023-05-10T20:37:41.873Z,18.32
2023-05-10T20:40:10.989Z,18.30
2023-05-10T20:42:38.806Z,18.27
2023-05-10T20:45:07.920Z,18.26
2023-05-10T20:47:37.299Z,18.27
2023-05-10T20:50:05.349Z,18.30
2023-05-10T20:52:33.333Z,18.29
2023-05-10T20:55:01.160Z,18.26
2023-05-10T20:57:28.922Z,18.25
2023-05-10T20:59:57.792Z,18.24
2023-05-10T21:02:25.942Z,18.23
2023-05-10T21:04:57.795Z,18.23
2023-05-10T21:07:26.374Z,18.20
2023-05-10T21:09:54.183Z,18.20
2023-05-10T21:12:21.954Z,18.21
2023-05-10T21:14:49.973Z,18.18
2023-05-10T21:17:20.008Z,18.18
2023-05-10T21:19:48.036Z,18.17
2023-05-10T21:22:17.980Z,18.18
2023-05-10T21:24:45.833Z,18.15
2023-05-10T21:27:13.704Z,18.11
2023-05-10T21:29:41.527Z,18.11
2023-05-10T21:32:09.719Z,18.11
2023-05-10T21:34:37.680Z,18.10
2023-05-10T21:37:06.041Z,18.08
2023-05-10T21:39:35.209Z,18.08
2023-05-10T21:42:03.861Z,18.08
2023-05-10T21:44:32.583Z,18.05
2023-05-10T21:47:00.344Z,18.06
2023-05-10T21:49:28.307Z,18.05
2023-05-10T21:51:56.417Z,18.04
2023-05-10T21:54:24.170Z,18.03
2023-05-10T21:56:53.517Z,18.02
2023-05-10T21:59:22.574Z,18.01
2023-05-10T22:01:50.497Z,18.01
2023-05-10T22:04:18.345Z,18.00
2023-05-10T22:06:46.675Z,18.00
2023-05-10T22:09:14.437Z,17.98
2023-05-10T22:11:42.190Z,17.98
2023-05-10T22:14:11.914Z,17.97
2023-05-10T22:16:39.712Z,17.95
2023-05-10T22:19:07.561Z,17.95
2023-05-10T22:21:35.897Z,17.93
2023-05-10T22:24:03.664Z,17.93
2023-05-10T22:26:31.489Z,17.91
2023-05-10T22:28:59.598Z,17.90
2023-05-10T22:31:29.103Z,17.90
2023-05-10T22:33:56.895Z,17.88
2023-05-10T22:36:25.225Z,17.87
2023-05-10T22:38:52.966Z,17.86
2023-05-10T22:41:20.737Z,17.85
2023-05-10T22:43:49.040Z,17.82
2023-05-10T22:46:16.866Z,17.81
2023-05-10T22:48:46.020Z,17.80
2023-05-10T22:51:14.207Z,17.76
2023-05-10T22:53:42.613Z,17.74
2023-05-10T22:56:10.964Z,17.70
2023-05-10T22:58:39.234Z,17.66
2023-05-10T23:01:07.149Z,17.62
2023-05-10T23:03:35.025Z,17.59
2023-05-10T23:06:05.059Z,17.53
2023-05-10T23:08:32.853Z,17.48
2023-05-10T23:11:00.716Z,17.45
2023-05-10T23:13:28.945Z,17.45
2023-05-10T23:15:57.341Z,17.43
2023-05-10T23:18:25.158Z,17.41
2023-05-10T23:20:54.348Z,17.41
2023-05-10T23:23:23.768Z,17.40
2023-05-10T23:25:51.748Z,17.40
2023-05-10T23:28:20.407Z,17.32
2023-05-10T23:30:48.182Z,17.36
2023-05-10T23:33:15.962Z,17.36
2023-05-10T23:35:44.462Z,17.34
2023-05-10T23:38:12.277Z,17.31
2023-05-10T23:40:41.495Z,17.33
2023-05-10T23:43:09.909Z,17.34
2023-05-10T23:45:37.711Z,17.31
2023-05-10T23:48:06.156Z,17.32
2023-05-10T23:50:34.453Z,17.31
2023-05-10T23:53:02.235Z,17.31
2023-05-10T23:55:29.997Z,17.32
2023-05-10T23:57:59.411Z,17.34
